sensor_id;sensor_type;location;lat;lon;timestamp;P1;durP1;ratioP1;P2;durP2;ratioP2
55136;SDS011;41032;47.818;-3.732;2023-02-01T10:19:52;3.85;;;2.00;;
55136;SDS011;41032;47.818;-3.732;2023-02-01T10:25:16;4.65;;;2.63;;
55136;SDS011;41032;47.818;-3.732;2023-02-01T10:27:45;5.30;;;3.03;;
55136;SDS011;41032;47.818;-3.732;2023-02-01T10:30:15;4.95;;;3.35;;
55136;SDS011;41032;47.818;-3.732;2023-02-01T10:32:43;4.80;;;2.80;;
55136;SDS011;41032;47.818;-3.732;2023-02-01T10:35:13;4.43;;;2.58;;
55136;SDS011;41032;47.818;-3.732;2023-02-01T10:37:43;5.57;;;2.95;;
55136;SDS011;41032;47.818;-3.732;2023-02-01T10:40:15;5.35;;;3.13;;
55136;SDS011;41032;47.818;-3.732;2023-02-01T10:42:45;7.93;;;3.28;;
55136;SDS011;41032;47.818;-3.732;2023-02-01T10:45:13;4.60;;;2.85;;
55136;SDS011;41032;47.818;-3.732;2023-02-01T10:47:44;4.60;;;2.75;;
55136;SDS011;41032;47.818;-3.732;2023-02-01T10:50:19;6.43;;;3.03;;
55136;SDS011;41032;47.818;-3.732;2023-02-01T10:53:11;4.47;;;2.65;;
55136;SDS011;41032;47.818;-3.732;2023-02-01T10:58:14;4.25;;;2.40;;
55136;SDS011;41032;47.818;-3.732;2023-02-01T11:00:48;4.05;;;2.42;;
55136;SDS011;41032;47.818;-3.732;2023-02-01T11:03:22;5.70;;;2.53;;
55136;SDS011;41032;47.818;-3.732;2023-02-01T11:06:09;5.18;;;2.15;;
55136;SDS011;41032;47.818;-3.732;2023-02-01T11:08:52;7.65;;;2.83;;
55136;SDS011;41032;47.818;-3.732;2023-02-01T11:11:21;7.35;;;3.55;;
55136;SDS011;41032;47.818;-3.732;2023-02-01T11:13:53;6.60;;;3.47;;
55136;SDS011;41032;47.818;-3.732;2023-02-01T11:16:29;5.50;;;2.92;;
55136;SDS011;41032;47.818;-3.732;2023-02-01T11:19:00;4.68;;;2.90;;
55136;SDS011;41032;47.818;-3.732;2023-02-01T11:21:27;6.20;;;2.85;;
55136;SDS011;41032;47.818;-3.732;2023-02-01T11:23:55;5.90;;;3.00;;
55136;SDS011;41032;47.818;-3.732;2023-02-01T11:26:23;6.57;;;2.58;;
55136;SDS011;41032;47.818;-3.732;2023-02-01T11:28:53;7.78;;;2.70;;
55136;SDS011;41032;47.818;-3.732;2023-02-01T11:31:24;7.20;;;2.58;;
55136;SDS011;41032;47.818;-3.732;2023-02-01T11:33:55;4.28;;;2.38;;
55136;SDS011;41032;47.818;-3.732;2023-02-01T11:36:26;4.80;;;2.30;;
55136;SDS011;41032;47.818;-3.732;2023-02-01T11:39:35;5.40;;;2.30;;
55136;SDS011;41032;47.818;-3.732;2023-02-01T11:42:12;8.20;;;3.28;;
55136;SDS011;41032;47.818;-3.732;2023-02-01T11:44:40;5.18;;;2.55;;
55136;SDS011;41032;47.818;-3.732;2023-02-01T11:47:53;6.18;;;2.55;;
55136;SDS011;41032;47.818;-3.732;2023-02-01T11:49:58;6.45;;;2.22;;
55136;SDS011;41032;47.818;-3.732;2023-02-01T11:52:30;4.93;;;2.15;;
55136;SDS011;41032;47.818;-3.732;2023-02-01T12:05:59;7.28;;;2.55;;
55136;SDS011;41032;47.818;-3.732;2023-02-01T12:08:56;5.00;;;2.35;;
55136;SDS011;41032;47.818;-3.732;2023-02-01T12:11:35;5.88;;;2.50;;
55136;SDS011;41032;47.818;-3.732;2023-02-01T12:17:07;6.13;;;2.88;;
55136;SDS011;41032;47.818;-3.732;2023-02-01T12:20:07;7.65;;;3.67;;
55136;SDS011;41032;47.818;-3.732;2023-02-01T12:23:01;5.88;;;3.10;;
55136;SDS011;41032;47.818;-3.732;2023-02-01T12:29:33;6.28;;;2.58;;
55136;SDS011;41032;47.818;-3.732;2023-02-01T12:43:04;5.18;;;2.53;;
55136;SDS011;41032;47.818;-3.732;2023-02-01T12:45:47;6.72;;;2.65;;
55136;SDS011;41032;47.818;-3.732;2023-02-01T12:50:50;6.10;;;2.95;;
55136;SDS011;41032;47.818;-3.732;2023-02-01T12:53:23;7.75;;;3.72;;
55136;SDS011;41032;47.818;-3.732;2023-02-01T12:55:54;21.17;;;12.18;;
55136;SDS011;41032;47.818;-3.732;2023-02-01T13:00:59;55.95;;;34.28;;
55136;SDS011;41032;47.818;-3.732;2023-02-01T13:03:38;61.58;;;40.00;;
55136;SDS011;41032;47.818;-3.732;2023-02-01T13:06:17;73.93;;;48.75;;
55136;SDS011;41032;47.818;-3.732;2023-02-01T13:11:44;93.00;;;59.90;;
55136;SDS011;41032;47.818;-3.732;2023-02-01T13:14:59;105.93;;;69.75;;
55136;SDS011;41032;47.818;-3.732;2023-02-01T13:17:04;118.22;;;78.80;;
55136;SDS011;41032;47.818;-3.732;2023-02-01T13:19:41;127.43;;;82.53;;
55136;SDS011;41032;47.818;-3.732;2023-02-01T13:22:21;135.80;;;90.32;;
55136;SDS011;41032;47.818;-3.732;2023-02-01T13:25:02;149.63;;;96.78;;
55136;SDS011;41032;47.818;-3.732;2023-02-01T13:27:31;157.65;;;102.80;;
55136;SDS011;41032;47.818;-3.732;2023-02-01T13:30:00;159.88;;;109.35;;
55136;SDS011;41032;47.818;-3.732;2023-02-01T13:35:34;171.30;;;115.00;;
55136;SDS011;41032;47.818;-3.732;2023-02-01T13:41:18;194.90;;;131.95;;
55136;SDS011;41032;47.818;-3.732;2023-02-01T17:26:20;365.95;;;268.50;;
55136;SDS011;41032;47.818;-3.732;2023-02-01T17:28:47;370.23;;;271.63;;
55136;SDS011;41032;47.818;-3.732;2023-02-01T17:31:14;369.85;;;264.70;;
55136;SDS011;41032;47.818;-3.732;2023-02-01T17:33:42;362.00;;;262.55;;
55136;SDS011;41032;47.818;-3.732;2023-02-01T17:36:11;363.83;;;267.15;;
55136;SDS011;41032;47.818;-3.732;2023-02-01T17:38:40;348.42;;;250.00;;
55136;SDS011;41032;47.818;-3.732;2023-02-01T17:41:09;348.08;;;249.27;;
55136;SDS011;41032;47.818;-3.732;2023-02-01T17:43:37;331.50;;;243.55;;
55136;SDS011;41032;47.818;-3.732;2023-02-01T17:46:09;342.00;;;248.23;;
55136;SDS011;41032;47.818;-3.732;2023-02-01T17:48:39;349.33;;;252.15;;
55136;SDS011;41032;47.818;-3.732;2023-02-01T17:51:27;340.48;;;249.40;;
55136;SDS011;41032;47.818;-3.732;2023-02-01T17:53:55;336.65;;;247.13;;
55136;SDS011;41032;47.818;-3.732;2023-02-01T17:56:23;363.23;;;255.85;;
55136;SDS011;41032;47.818;-3.732;2023-02-01T17:58:51;362.20;;;255.65;;
55136;SDS011;41032;47.818;-3.732;2023-02-01T18:01:21;362.40;;;250.13;;
55136;SDS011;41032;47.818;-3.732;2023-02-01T18:03:49;359.45;;;253.07;;
55136;SDS011;41032;47.818;-3.732;2023-02-01T18:06:18;356.77;;;254.55;;
55136;SDS011;41032;47.818;-3.732;2023-02-01T18:08:48;378.17;;;255.45;;
55136;SDS011;41032;47.818;-3.732;2023-02-01T18:11:17;370.38;;;250.23;;
55136;SDS011;41032;47.818;-3.732;2023-02-01T18:13:46;364.10;;;256.02;;
55136;SDS011;41032;47.818;-3.732;2023-02-01T18:16:16;353.88;;;245.52;;
55136;SDS011;41032;47.818;-3.732;2023-02-01T18:18:46;339.52;;;246.82;;
55136;SDS011;41032;47.818;-3.732;2023-02-01T18:21:15;354.15;;;250.48;;
55136;SDS011;41032;47.818;-3.732;2023-02-01T18:23:43;358.67;;;254.50;;
55136;SDS011;41032;47.818;-3.732;2023-02-01T18:26:12;339.98;;;238.02;;
55136;SDS011;41032;47.818;-3.732;2023-02-01T18:28:42;374.88;;;255.68;;
55136;SDS011;41032;47.818;-3.732;2023-02-01T18:31:31;370.88;;;249.32;;
55136;SDS011;41032;47.818;-3.732;2023-02-01T18:34:01;388.65;;;261.95;;
55136;SDS011;41032;47.818;-3.732;2023-02-01T18:36:30;390.23;;;253.57;;
55136;SDS011;41032;47.818;-3.732;2023-02-01T18:38:58;380.20;;;253.18;;
55136;SDS011;41032;47.818;-3.732;2023-02-01T18:41:25;369.20;;;242.70;;
55136;SDS011;41032;47.818;-3.732;2023-02-01T18:43:53;386.38;;;245.93;;
55136;SDS011;41032;47.818;-3.732;2023-02-01T18:46:21;366.08;;;240.60;;
55136;SDS011;41032;47.818;-3.732;2023-02-01T18:48:49;354.98;;;225.77;;
55136;SDS011;41032;47.818;-3.732;2023-02-01T18:51:17;354.35;;;224.60;;
55136;SDS011;41032;47.818;-3.732;2023-02-01T18:53:46;343.65;;;224.88;;
55136;SDS011;41032;47.818;-3.732;2023-02-01T18:56:16;333.50;;;223.27;;
55136;SDS011;41032;47.818;-3.732;2023-02-01T18:58:44;347.55;;;227.88;;
55136;SDS011;41032;47.818;-3.732;2023-02-01T19:01:13;328.85;;;226.15;;
55136;SDS011;41032;47.818;-3.732;2023-02-01T19:03:42;332.67;;;222.88;;
55136;SDS011;41032;47.818;-3.732;2023-02-01T19:06:10;342.20;;;230.10;;
55136;SDS011;41032;47.818;-3.732;2023-02-01T19:08:37;323.48;;;217.57;;
55136;SDS011;41032;47.818;-3.732;2023-02-01T19:11:05;345.45;;;227.75;;
55136;SDS011;41032;47.818;-3.732;2023-02-01T19:13:36;328.85;;;224.23;;
55136;SDS011;41032;47.818;-3.732;2023-02-01T19:16:05;331.08;;;222.93;;
55136;SDS011;41032;47.818;-3.732;2023-02-01T19:18:33;336.45;;;226.63;;
55136;SDS011;41032;47.818;-3.732;2023-02-01T19:21:03;330.63;;;225.98;;
55136;SDS011;41032;47.818;-3.732;2023-02-01T19:23:33;317.27;;;222.65;;
55136;SDS011;41032;47.818;-3.732;2023-02-01T19:26:03;332.65;;;229.50;;
55136;SDS011;41032;47.818;-3.732;2023-02-01T19:28:35;321.17;;;219.85;;
55136;SDS011;41032;47.818;-3.732;2023-02-01T19:31:04;342.98;;;237.60;;
55136;SDS011;41032;47.818;-3.732;2023-02-01T19:33:33;324.17;;;226.60;;
55136;SDS011;41032;47.818;-3.732;2023-02-01T19:36:02;320.45;;;224.27;;
55136;SDS011;41032;47.818;-3.732;2023-02-01T19:38:34;315.58;;;223.50;;
55136;SDS011;41032;47.818;-3.732;2023-02-01T19:41:02;329.90;;;230.15;;
55136;SDS011;41032;47.818;-3.732;2023-02-01T19:43:30;323.45;;;225.38;;
55136;SDS011;41032;47.818;-3.732;2023-02-01T19:45:58;323.20;;;223.75;;
55136;SDS011;41032;47.818;-3.732;2023-02-01T19:48:27;332.45;;;227.32;;
55136;SDS011;41032;47.818;-3.732;2023-02-01T19:50:56;337.05;;;227.65;;
55136;SDS011;41032;47.818;-3.732;2023-02-01T19:53:25;330.00;;;235.93;;
55136;SDS011;41032;47.818;-3.732;2023-02-01T19:55:56;324.27;;;231.07;;
55136;SDS011;41032;47.818;-3.732;2023-02-01T19:58:26;336.38;;;232.23;;
55136;SDS011;41032;47.818;-3.732;2023-02-01T20:00:55;334.45;;;234.35;;
55136;SDS011;41032;47.818;-3.732;2023-02-01T20:03:25;323.10;;;232.15;;
55136;SDS011;41032;47.818;-3.732;2023-02-01T20:05:56;332.70;;;232.57;;
55136;SDS011;41032;47.818;-3.732;2023-02-01T20:08:25;333.17;;;234.73;;
55136;SDS011;41032;47.818;-3.732;2023-02-01T20:10:54;335.63;;;240.07;;
55136;SDS011;41032;47.818;-3.732;2023-02-01T20:13:23;331.13;;;234.20;;
55136;SDS011;41032;47.818;-3.732;2023-02-01T20:15:56;333.27;;;237.27;;
55136;SDS011;41032;47.818;-3.732;2023-02-01T20:18:25;333.98;;;237.90;;
55136;SDS011;41032;47.818;-3.732;2023-02-01T20:20:58;326.02;;;236.15;;
55136;SDS011;41032;47.818;-3.732;2023-02-01T20:23:26;329.35;;;233.07;;
55136;SDS011;41032;47.818;-3.732;2023-02-01T20:25:59;334.65;;;239.13;;
55136;SDS011;41032;47.818;-3.732;2023-02-01T20:28:29;311.20;;;224.68;;
55136;SDS011;41032;47.818;-3.732;2023-02-01T20:30:57;323.30;;;232.85;;
